Overview Statistics Trail Chart Weather Telemetry Raw packets
 

This is the latest recevied weather packets stored in our database for station/object DL2GPS-3. If no packets are shown the sender has not sent any weather packets the latest 10 day(s).

<< 24 25 26 27 28 29 30 >>
Time Temp. Humidity Pressure Rain* Wind** Luminosity Snow
1788330331 18.33° C 70% 1024.7 hPa - - - -
1788329731 21.67° C 56% 1024.7 hPa - - - -
1788329149 21.11° C 59% 1024.7 hPa - - - -
1788328529 20° C 60% 1024.7 hPa - - - -
1788327928 20° C 60% 1024.7 hPa - - - -
1788327327 16.67° C 74% 1024.6 hPa - - - -
1788326726 14.44° C 83% 1024.7 hPa - - - -
1788326125 16.11° C 73% 1024.7 hPa - - - -
1788325524 17.22° C 70% 1024.5 hPa - - - -
1788324923 14.44° C 86% 1024.5 hPa - - - -
1788324322 12.78° C 96% 1024.4 hPa - - - -
1788323721 12.78° C 96% 1024.4 hPa - - - -
1788323121 12.78° C 96% 1024.5 hPa - - - -
1788322527 12.78° C 97% 1024.5 hPa - - - -
1788321919 12.78° C 96% 1024.5 hPa - - - -
1788321317 12.78° C 95% 1024.6 hPa - - - -
1788320716 12.78° C 95% 1024.6 hPa - - - -
1788320116 12.78° C 95% 1024.5 hPa - - - -
1788319515 12.78° C 94% 1024.7 hPa - - - -
1788318913 12.78° C 95% 1024.6 hPa - - - -
1788318313 12.78° C 94% 1024.7 hPa - - - -
1788317711 12.78° C 93% 1024.7 hPa - - - -
1788317110 13.33° C 93% 1024.7 hPa - - - -
1788316509 12.78° C 94% 1024.8 hPa - - - -
1788315908 13.33° C 93% 1024.7 hPa - - - -

* Rain since midnight (hover to see other rain measurements)
** Current wind speed in m/s (hover to see current wind gust speed)